Time;durP1;ratioP1;P1;durP2;ratioP2;P2;SDS_P1;SDS_P2;PMS_P1;PMS_P2;Temp;Humidity;BMP_temperature;BMP_pressure;BME280_temperature;BME280_humidity;BME280_pressure;Samples;Min_cycle;Max_cycle;Signal;HPM_P1;HPM_P2
2022/03/05 00:01:58;;;;;;;13.50;6.97;;;3.80;72.50;;;;;;5095798;28;20020;-38
2022/03/05 00:04:24;;;;;;;12.10;6.75;;;3.70;72.10;;;;;;5095686;28;20103;-38
2022/03/05 00:06:49;;;;;;;13.32;7.32;;;3.70;71.90;;;;;;5095556;28;20182;-38
2022/03/05 00:09:19;;;;;;;12.55;7.90;;;3.70;72.10;;;;;;5077429;28;20028;-38
2022/03/05 00:11:44;;;;;;;13.95;6.97;;;3.70;72.10;;;;;;5095480;28;20478;-38
2022/03/05 00:14:10;;;;;;;14.95;7.53;;;3.60;72.10;;;;;;5095411;28;20016;-38
2022/03/05 00:16:36;;;;;;;15.57;7.53;;;3.60;71.90;;;;;;5077202;28;20023;-38
2022/03/05 00:19:02;;;;;;;15.63;8.30;;;3.60;71.90;;;;;;5095344;28;20020;-38
2022/03/05 00:21:27;;;;;;;13.25;7.13;;;3.50;71.70;;;;;;5095198;28;20036;-41
2022/03/05 00:23:53;;;;;;;15.05;8.05;;;3.50;71.60;;;;;;5095198;28;20104;-38
2022/03/05 00:26:18;;;;;;;13.32;7.38;;;3.50;72.00;;;;;;5095077;28;20024;-39
2022/03/05 00:28:44;;;;;;;14.07;7.40;;;3.50;71.80;;;;;;5094973;28;20464;-39
2022/03/05 00:31:09;;;;;;;11.90;7.07;;;3.50;71.70;;;;;;5095074;28;20031;-40
2022/03/05 00:33:35;;;;;;;14.98;8.05;;;3.50;71.50;;;;;;5094958;28;20020;-38
2022/03/05 00:36:01;;;;;;;14.23;7.10;;;3.50;71.40;;;;;;5077184;28;20027;-39
2022/03/05 00:38:26;;;;;;;14.65;7.47;;;3.40;71.40;;;;;;5077196;28;20024;-37
2022/03/05 00:40:52;;;;;;;16.08;8.13;;;3.40;72.20;;;;;;5094822;28;20055;-37
2022/03/05 00:43:18;;;;;;;14.80;7.18;;;3.40;71.90;;;;;;5095201;28;20024;-38
2022/03/05 00:45:43;;;;;;;13.52;7.22;;;3.40;71.90;;;;;;5094822;28;20012;-37
2022/03/05 00:48:09;;;;;;;14.85;8.10;;;3.40;72.00;;;;;;5095099;28;20495;-38
2022/03/05 00:50:35;;;;;;;14.70;7.30;;;3.40;71.80;;;;;;5094739;28;20103;-36
2022/03/05 00:53:00;;;;;;;13.05;7.20;;;3.40;71.70;;;;;;5094773;28;20043;-37
2022/03/05 00:55:26;;;;;;;13.90;8.00;;;3.40;71.60;;;;;;5094563;28;20102;-38
2022/03/05 00:57:51;;;;;;;15.88;7.47;;;3.30;71.40;;;;;;5094731;28;20070;-38
2022/03/05 01:00:17;;;;;;;14.48;7.75;;;3.30;71.40;;;;;;5094727;28;20028;-38
2022/03/05 01:02:43;;;;;;;14.95;7.82;;;3.30;71.30;;;;;;5094563;28;20016;-44
2022/03/05 01:05:10;;;;;;;14.32;7.50;;;3.20;71.30;;;;;;5094676;28;20024;-38
2022/03/05 01:07:36;;;;;;;15.98;8.40;;;3.10;71.40;;;;;;5094737;28;20081;-37
2022/03/05 01:10:03;;;;;;;16.58;8.57;;;3.10;71.30;;;;;;5094350;28;20020;-39
2022/03/05 01:12:28;;;;;;;15.65;8.52;;;3.20;71.40;;;;;;5094486;28;20486;-38
2022/03/05 01:14:54;;;;;;;14.30;7.88;;;3.10;71.20;;;;;;5094512;28;20027;-38
2022/03/05 01:17:20;;;;;;;15.25;7.63;;;3.10;71.20;;;;;;5094104;28;20031;-38
2022/03/05 01:19:46;;;;;;;15.70;7.90;;;3.10;71.10;;;;;;5075849;28;20028;-38
2022/03/05 01:22:12;;;;;;;16.42;9.00;;;3.10;71.70;;;;;;5094348;28;20091;-38
2022/03/05 01:24:37;;;;;;;14.13;7.43;;;3.10;71.10;;;;;;5093986;28;20048;-37
2022/03/05 01:27:03;;;;;;;16.88;8.20;;;3.10;71.00;;;;;;5075764;28;20099;-37
2022/03/05 01:29:29;;;;;;;16.63;8.40;;;3.10;71.00;;;;;;5093948;28;20020;-44
2022/03/05 01:31:54;;;;;;;13.82;7.95;;;3.00;71.00;;;;;;5093823;28;20025;-38
2022/03/05 01:34:20;;;;;;;15.55;8.10;;;3.00;71.00;;;;;;5093928;28;20020;-38
2022/03/05 01:36:46;;;;;;;15.70;8.48;;;3.00;71.00;;;;;;5093762;28;20020;-37
2022/03/05 01:39:12;;;;;;;15.63;8.50;;;3.00;71.00;;;;;;5093724;28;20020;-37
2022/03/05 01:41:38;;;;;;;15.73;8.25;;;2.90;71.00;;;;;;5094024;28;20063;-37
2022/03/05 01:44:04;;;;;;;14.45;8.18;;;2.90;71.10;;;;;;5094070;28;20048;-37
2022/03/05 01:46:32;;;;;;;15.23;8.70;;;2.90;71.10;;;;;;5093965;28;20020;-38
2022/03/05 01:48:57;;;;;;;16.60;8.48;;;2.90;71.00;;;;;;5093778;28;20012;-38
2022/03/05 01:51:24;;;;;;;17.67;8.65;;;2.90;71.00;;;;;;5093652;28;20055;-38
2022/03/05 01:53:50;;;;;;;17.67;8.32;;;2.90;71.00;;;;;;5093638;28;20368;-38
2022/03/05 01:56:16;;;;;;;15.88;8.05;;;2.90;71.00;;;;;;5093750;28;20043;-37
2022/03/05 01:58:42;;;;;;;18.25;9.20;;;2.80;70.90;;;;;;5093737;28;20387;-37
2022/03/05 02:01:09;;;;;;;17.50;8.27;;;2.80;71.00;;;;;;5093801;28;20405;-39
2022/03/05 02:03:37;;;;;;;17.80;8.93;;;2.80;71.00;;;;;;5093690;28;20099;-39
2022/03/05 02:06:02;;;;;;;17.65;9.07;;;2.80;71.00;;;;;;5075390;28;20450;-38
2022/03/05 02:08:29;;;;;;;19.17;9.55;;;2.80;71.00;;;;;;5093412;28;20108;-39
2022/03/05 02:10:55;;;;;;;19.70;9.50;;;2.70;71.00;;;;;;5093269;28;20024;-38
2022/03/05 02:13:20;;;;;;;19.42;9.75;;;2.70;71.00;;;;;;5093183;28;20033;-38
2022/03/05 02:15:53;;;;;;;18.55;9.52;;;2.70;71.00;;;;;;5092614;28;20389;-39
2022/03/05 02:18:18;;;;;;;17.42;9.05;;;2.70;71.10;;;;;;5092949;28;20093;-38
2022/03/05 02:20:44;;;;;;;20.02;10.27;;;2.70;71.10;;;;;;5092951;28;20411;-38
2022/03/05 02:23:09;;;;;;;17.92;9.48;;;2.70;71.10;;;;;;5092998;28;20361;-38
2022/03/05 02:25:35;;;;;;;20.20;10.00;;;2.60;71.10;;;;;;5092984;28;20024;-35
2022/03/05 02:28:01;;;;;;;20.10;10.13;;;2.60;71.10;;;;;;5093046;28;20024;-38
2022/03/05 02:30:27;;;;;;;17.90;9.65;;;2.60;71.10;;;;;;5092951;28;20062;-39
2022/03/05 02:32:52;;;;;;;18.20;9.00;;;2.60;71.20;;;;;;5074943;28;20063;-39
2022/03/05 02:35:18;;;;;;;18.67;10.02;;;2.60;71.20;;;;;;5074967;28;20054;-38
2022/03/05 02:37:44;;;;;;;19.10;10.15;;;2.50;71.10;;;;;;5093114;28;20024;-38
2022/03/05 02:40:10;;;;;;;17.85;9.23;;;2.60;71.20;;;;;;5092981;28;20111;-39
2022/03/05 02:42:35;;;;;;;18.65;9.63;;;2.50;71.10;;;;;;5093059;28;20027;-37
2022/03/05 02:45:01;;;;;;;21.33;10.27;;;2.50;71.10;;;;;;5074943;28;20024;-37
2022/03/05 02:47:27;;;;;;;20.20;10.32;;;2.50;71.10;;;;;;5075070;28;20027;-38
2022/03/05 02:49:52;;;;;;;20.08;9.73;;;2.50;71.10;;;;;;5092916;28;20024;-39
2022/03/05 02:52:18;;;;;;;20.38;9.88;;;2.40;71.10;;;;;;5093190;28;20093;-37
2022/03/05 02:54:44;;;;;;;22.15;9.82;;;2.40;71.10;;;;;;5092697;28;20055;-38
2022/03/05 02:57:09;;;;;;;21.15;10.13;;;2.40;71.20;;;;;;5092664;28;20032;-38
2022/03/05 02:59:35;;;;;;;22.85;10.88;;;2.40;71.30;;;;;;5092577;28;20500;-38
2022/03/05 03:02:00;;;;;;;17.45;9.45;;;2.30;71.20;;;;;;5092535;28;20028;-38
2022/03/05 03:04:26;;;;;;;23.48;11.82;;;2.30;71.30;;;;;;5092477;28;20438;-38
2022/03/05 03:06:51;;;;;;;21.92;10.40;;;2.30;71.30;;;;;;5092428;28;20060;-37
2022/03/05 03:09:17;;;;;;;21.83;10.52;;;2.30;71.30;;;;;;5092657;28;20214;-37
2022/03/05 03:11:43;;;;;;;19.83;9.93;;;2.20;71.30;;;;;;5092489;28;20050;-37
2022/03/05 03:14:08;;;;;;;19.90;10.30;;;2.20;71.40;;;;;;5074446;28;20132;-37
2022/03/05 03:16:34;;;;;;;22.08;10.07;;;2.20;71.40;;;;;;5092414;28;20028;-39
2022/03/05 03:18:59;;;;;;;22.02;10.77;;;2.20;71.40;;;;;;5092304;28;20032;-37
2022/03/05 03:21:25;;;;;;;19.98;10.30;;;2.20;71.40;;;;;;5092395;28;20111;-37
2022/03/05 03:23:51;;;;;;;22.35;10.35;;;2.20;71.40;;;;;;5092368;28;20519;-37
2022/03/05 03:26:16;;;;;;;21.20;10.45;;;2.20;71.40;;;;;;5092403;28;20024;-36
2022/03/05 03:28:42;;;;;;;21.15;10.60;;;2.20;71.50;;;;;;5094180;28;20441;-38
2022/03/05 03:31:07;;;;;;;21.80;10.45;;;2.10;71.40;;;;;;5096402;28;20111;-38
2022/03/05 03:33:33;;;;;;;20.85;10.18;;;2.10;71.40;;;;;;5096240;28;20472;-38
2022/03/05 03:35:58;;;;;;;22.08;10.38;;;2.10;71.50;;;;;;5096186;28;20119;-38
2022/03/05 03:38:24;;;;;;;21.50;10.50;;;2.10;71.50;;;;;;5096127;28;20452;-37
2022/03/05 03:40:49;;;;;;;26.75;11.82;;;2.10;71.50;;;;;;5096046;28;20024;-38
2022/03/05 03:43:15;;;;;;;25.30;11.70;;;2.10;71.60;;;;;;5096169;28;20024;-39
2022/03/05 03:45:41;;;;;;;20.85;10.45;;;2.10;71.60;;;;;;5096058;28;20024;-37
2022/03/05 03:48:06;;;;;;;23.15;10.57;;;2.00;71.50;;;;;;5096076;28;20506;-38
2022/03/05 03:50:32;;;;;;;24.77;11.60;;;2.00;71.50;;;;;;5096451;28;20024;-38
2022/03/05 03:52:58;;;;;;;21.88;11.18;;;2.00;71.50;;;;;;5095894;28;20070;-37
2022/03/05 03:55:24;;;;;;;22.25;10.38;;;2.00;71.60;;;;;;5095742;28;20047;-38
2022/03/05 03:57:50;;;;;;;19.33;9.48;;;2.00;71.60;;;;;;5095878;28;20035;-39
2022/03/05 04:00:18;;;;;;;24.25;11.38;;;2.00;71.60;;;;;;5095766;28;20350;-38
2022/03/05 04:02:44;;;;;;;21.83;10.77;;;2.00;71.60;;;;;;5095964;28;20506;-39
2022/03/05 04:05:11;;;;;;;22.83;10.65;;;1.90;71.60;;;;;;5095771;28;20206;-38
2022/03/05 04:10:21;;;;;;;26.42;10.82;;;1.90;71.70;;;;;;5095823;28;20051;-38
2022/03/05 04:12:46;;;;;;;27.85;11.80;;;1.90;71.70;;;;;;5095389;28;20066;-38
2022/03/05 04:15:12;;;;;;;23.98;11.65;;;1.90;71.70;;;;;;5095455;28;20056;-38
2022/03/05 04:17:38;;;;;;;22.98;11.57;;;1.80;71.70;;;;;;5095426;28;20472;-37
2022/03/05 04:20:05;;;;;;;21.98;11.07;;;1.80;71.70;;;;;;5095345;28;20044;-38
2022/03/05 04:22:31;;;;;;;22.85;11.30;;;1.80;71.70;;;;;;5095548;28;20042;-36
2022/03/05 04:24:56;;;;;;;24.75;11.07;;;1.80;71.70;;;;;;5095462;28;20103;-36
2022/03/05 04:27:22;;;;;;;23.23;11.38;;;1.80;71.70;;;;;;5095267;28;20031;-37
2022/03/05 04:29:48;;;;;;;24.80;10.75;;;1.80;71.80;;;;;;5095212;28;20036;-39
2022/03/05 04:32:15;;;;;;;22.50;11.15;;;1.70;71.80;;;;;;5095093;28;20031;-38
2022/03/05 04:34:41;;;;;;;23.40;11.10;;;1.70;71.90;;;;;;5095191;28;20124;-37
2022/03/05 04:37:06;;;;;;;20.27;10.05;;;1.70;71.90;;;;;;5095066;28;20031;-37
2022/03/05 04:39:32;;;;;;;21.30;10.38;;;1.70;71.90;;;;;;5094530;28;20024;-37
2022/03/05 04:41:58;;;;;;;26.75;11.00;;;1.70;71.90;;;;;;5094998;28;20052;-37
2022/03/05 04:44:23;;;;;;;23.75;11.23;;;1.70;71.90;;;;;;5094972;28;20024;-37
2022/03/05 04:46:49;;;;;;;24.42;11.50;;;1.60;71.90;;;;;;5076603;28;20024;-37
2022/03/05 04:49:14;;;;;;;29.52;12.55;;;1.70;71.90;;;;;;5094896;28;20028;-38
2022/03/05 04:51:40;;;;;;;24.73;11.77;;;1.60;71.90;;;;;;5094777;28;20042;-37
2022/03/05 04:54:06;;;;;;;25.25;10.95;;;1.60;71.90;;;;;;5094597;28;20032;-37
2022/03/05 04:56:31;;;;;;;23.52;10.85;;;1.60;71.90;;;;;;5094775;28;20107;-39
2022/03/05 04:58:57;;;;;;;27.52;11.95;;;1.60;71.90;;;;;;5094577;28;20103;-39
2022/03/05 05:01:23;;;;;;;27.80;11.88;;;1.60;71.90;;;;;;5094534;28;20028;-37
2022/03/05 05:03:48;;;;;;;24.10;11.15;;;1.70;72.00;;;;;;5094452;28;20021;-37
2022/03/05 05:06:14;;;;;;;25.25;12.18;;;1.60;71.90;;;;;;5094678;28;20020;-38
2022/03/05 05:08:40;;;;;;;25.45;11.95;;;1.70;72.00;;;;;;5094627;28;20111;-39
2022/03/05 05:11:05;;;;;;;25.50;11.68;;;1.60;72.00;;;;;;5094560;28;20031;-37
2022/03/05 05:13:31;;;;;;;21.88;10.38;;;1.60;72.00;;;;;;5094608;28;20111;-37
2022/03/05 05:15:57;;;;;;;24.15;11.13;;;1.60;72.00;;;;;;5094566;28;20028;-38
2022/03/05 05:18:23;;;;;;;28.95;11.68;;;1.60;71.90;;;;;;5094426;28;20028;-37
2022/03/05 05:20:49;;;;;;;25.42;12.02;;;1.60;71.90;;;;;;5094137;28;20036;-37
2022/03/05 05:23:15;;;;;;;27.30;12.57;;;1.60;72.00;;;;;;5094197;28;20031;-37
2022/03/05 05:25:41;;;;;;;27.20;12.18;;;1.60;72.00;;;;;;5093989;28;20021;-37
2022/03/05 05:28:07;;;;;;;26.10;11.88;;;1.60;72.00;;;;;;5094151;28;20032;-38
2022/03/05 05:30:32;;;;;;;28.00;11.77;;;1.60;72.00;;;;;;5075733;28;20027;-36
2022/03/05 05:32:58;;;;;;;28.08;11.45;;;1.50;72.00;;;;;;5093784;28;20039;-37
2022/03/05 05:35:24;;;;;;;23.75;10.68;;;1.50;72.00;;;;;;5093848;28;20031;-37
2022/03/05 05:37:50;;;;;;;24.38;11.23;;;1.50;72.00;;;;;;5093660;28;20088;-37
2022/03/05 05:40:15;;;;;;;27.38;11.18;;;1.50;72.00;;;;;;5093672;28;20081;-37
2022/03/05 05:42:42;;;;;;;26.13;11.90;;;1.50;72.00;;;;;;5075534;28;20032;-37
2022/03/05 05:45:09;;;;;;;31.77;12.75;;;1.50;72.10;;;;;;5093718;28;20415;-37
2022/03/05 05:47:35;;;;;;;27.52;12.35;;;1.50;72.20;;;;;;5093690;28;20020;-37
2022/03/05 05:50:01;;;;;;;25.02;11.35;;;1.50;72.20;;;;;;5093907;28;20043;-37
2022/03/05 05:52:26;;;;;;;25.67;11.55;;;1.50;72.20;;;;;;5093088;28;20484;-37
2022/03/05 05:54:52;;;;;;;24.27;11.93;;;1.50;72.20;;;;;;5093518;28;20040;-37
2022/03/05 05:57:17;;;;;;;27.75;12.27;;;1.50;72.20;;;;;;5093592;28;20102;-37
2022/03/05 05:59:43;;;;;;;28.67;12.00;;;1.50;72.20;;;;;;5093537;28;20035;-37
2022/03/05 06:02:08;;;;;;;25.65;12.18;;;1.50;72.20;;;;;;5093500;28;20099;-38
2022/03/05 06:04:34;;;;;;;24.27;10.85;;;1.50;72.20;;;;;;5093508;28;20024;-37
2022/03/05 06:07:00;;;;;;;26.70;12.15;;;1.50;72.30;;;;;;5093407;28;20083;-38
2022/03/05 06:09:26;;;;;;;28.60;12.13;;;1.50;72.20;;;;;;5093385;28;20048;-37
2022/03/05 06:11:52;;;;;;;24.42;11.32;;;1.50;72.20;;;;;;5075033;28;20079;-38
2022/03/05 06:14:17;;;;;;;29.48;12.68;;;1.40;72.20;;;;;;5093294;28;20070;-37
2022/03/05 06:16:43;;;;;;;25.85;11.38;;;1.40;72.20;;;;;;5093265;28;20028;-37
2022/03/05 06:19:08;;;;;;;26.70;12.30;;;1.40;72.20;;;;;;5093154;28;20051;-38
2022/03/05 06:21:34;;;;;;;26.20;11.05;;;1.40;72.20;;;;;;5093099;28;20036;-38
2022/03/05 06:24:00;;;;;;;25.25;11.60;;;1.40;72.20;;;;;;5093408;28;20043;-37
2022/03/05 06:26:28;;;;;;;28.80;12.50;;;1.40;72.80;;;;;;5075049;28;20405;-38
2022/03/05 06:28:54;;;;;;;29.17;11.98;;;1.40;72.30;;;;;;5093042;28;20069;-37
2022/03/05 06:31:20;;;;;;;28.20;11.70;;;1.40;72.20;;;;;;5074898;28;20027;-37
2022/03/05 06:33:45;;;;;;;26.50;12.18;;;1.40;72.20;;;;;;5092917;28;20082;-38
2022/03/05 06:36:11;;;;;;;29.10;12.93;;;1.40;72.20;;;;;;5093009;28;20038;-39
2022/03/05 06:38:37;;;;;;;27.83;12.38;;;1.50;72.30;;;;;;5092922;28;20480;-36
2022/03/05 06:41:02;;;;;;;25.33;11.95;;;1.40;72.20;;;;;;5074617;28;20531;-37
2022/03/05 06:43:28;;;;;;;24.73;11.13;;;1.40;72.30;;;;;;5092819;28;20032;-38
2022/03/05 06:45:54;;;;;;;28.27;12.20;;;1.50;72.90;;;;;;5092962;28;20111;-38
2022/03/05 06:48:20;;;;;;;23.70;11.43;;;1.50;72.20;;;;;;5092952;28;20039;-36
2022/03/05 06:50:46;;;;;;;27.38;11.50;;;1.50;72.20;;;;;;5093218;28;20055;-39
2022/03/05 06:53:11;;;;;;;23.92;11.55;;;1.50;72.20;;;;;;5092843;28;20484;-37
2022/03/05 06:55:37;;;;;;;25.67;11.88;;;1.50;72.10;;;;;;5092782;28;20047;-37
2022/03/05 06:58:02;;;;;;;24.33;10.77;;;1.60;72.10;;;;;;5075023;28;20119;-38
2022/03/05 07:00:28;;;;;;;25.45;11.15;;;1.60;72.00;;;;;;5092686;28;20386;-38
2022/03/05 07:02:54;;;;;;;25.38;11.25;;;1.60;72.00;;;;;;5096809;28;20043;-37
2022/03/05 07:05:20;;;;;;;24.27;10.88;;;1.60;72.00;;;;;;5099498;28;20118;-38
2022/03/05 07:07:45;;;;;;;23.15;10.65;;;1.70;72.10;;;;;;5099502;28;20024;-37
2022/03/05 07:10:11;;;;;;;28.92;12.45;;;1.70;72.00;;;;;;5099679;28;20028;-37
2022/03/05 07:12:37;;;;;;;25.55;11.48;;;1.70;71.90;;;;;;5099279;28;20038;-37
2022/03/05 07:15:03;;;;;;;27.85;11.25;;;1.70;71.90;;;;;;5099420;28;20103;-44
2022/03/05 07:17:29;;;;;;;25.95;11.75;;;1.80;71.90;;;;;;5099707;28;20102;-39
2022/03/05 07:19:55;;;;;;;25.83;11.68;;;1.80;71.80;;;;;;5099138;28;20484;-39
2022/03/05 07:22:21;;;;;;;26.90;12.40;;;1.80;71.80;;;;;;5099181;28;20093;-39
2022/03/05 07:24:46;;;;;;;23.23;10.35;;;1.90;71.80;;;;;;5099420;28;20020;-38
2022/03/05 07:27:12;;;;;;;22.85;10.55;;;1.90;71.80;;;;;;5099354;28;20024;-38
2022/03/05 07:29:37;;;;;;;22.15;10.75;;;1.90;71.70;;;;;;5099160;28;20102;-37
2022/03/05 07:32:04;;;;;;;22.55;10.52;;;2.00;71.70;;;;;;5099472;28;20103;-38
2022/03/05 07:34:30;;;;;;;22.80;11.02;;;2.00;71.60;;;;;;5081069;28;20024;-39
2022/03/05 07:36:57;;;;;;;24.90;11.20;;;2.00;71.90;;;;;;5099385;28;20337;-38
2022/03/05 07:39:22;;;;;;;24.65;10.48;;;2.10;71.70;;;;;;5081013;28;20476;-38
2022/03/05 07:41:48;;;;;;;23.40;11.25;;;2.10;71.60;;;;;;5099378;28;20042;-38
2022/03/05 07:44:14;;;;;;;23.25;10.65;;;2.10;71.50;;;;;;5099543;28;20020;-38
2022/03/05 07:46:39;;;;;;;23.15;10.40;;;2.10;71.40;;;;;;5099232;28;20131;-37
2022/03/05 07:49:05;;;;;;;22.90;11.15;;;2.20;71.40;;;;;;5099259;28;20488;-38
2022/03/05 07:51:32;;;;;;;23.90;11.30;;;2.20;71.40;;;;;;5099427;28;20028;-38
2022/03/05 07:53:58;;;;;;;23.58;11.18;;;2.30;71.50;;;;;;5098884;28;20032;-38
2022/03/05 07:56:23;;;;;;;22.48;10.98;;;2.30;71.30;;;;;;5098938;28;20081;-37
2022/03/05 07:58:49;;;;;;;28.05;12.98;;;2.40;71.30;;;;;;5098949;28;20032;-39
2022/03/05 08:01:14;;;;;;;23.98;10.77;;;2.40;71.20;;;;;;5098818;28;20043;-37
2022/03/05 08:03:40;;;;;;;27.98;12.30;;;2.50;71.10;;;;;;5099031;28;20031;-37
2022/03/05 08:06:06;;;;;;;30.48;11.43;;;2.50;71.00;;;;;;5099045;28;20028;-38
2022/03/05 08:08:31;;;;;;;24.27;11.00;;;2.60;71.00;;;;;;5098943;28;20036;-39
2022/03/05 08:10:57;;;;;;;24.38;10.82;;;2.60;70.80;;;;;;5098802;28;20020;-39
2022/03/05 08:13:23;;;;;;;24.10;11.05;;;2.70;70.90;;;;;;5098299;28;20476;-39
2022/03/05 08:15:49;;;;;;;24.70;11.23;;;2.70;70.80;;;;;;5095489;28;20502;-39
2022/03/05 08:18:15;;;;;;;29.50;12.30;;;2.80;70.70;;;;;;5095665;28;20024;-39
2022/03/05 08:20:41;;;;;;;25.27;11.48;;;2.90;70.60;;;;;;5095363;28;20043;-38
2022/03/05 08:23:07;;;;;;;24.95;11.18;;;2.90;70.50;;;;;;5095670;28;20035;-38
2022/03/05 08:25:32;;;;;;;22.52;10.63;;;3.00;70.40;;;;;;5095678;28;20081;-39
2022/03/05 08:27:58;;;;;;;25.45;11.23;;;3.10;70.40;;;;;;5095476;28;20430;-38
2022/03/05 08:30:24;;;;;;;23.27;10.80;;;3.20;70.40;;;;;;5095558;28;20047;-40
2022/03/05 08:32:50;;;;;;;23.20;11.32;;;3.20;70.90;;;;;;5095307;28;20423;-40
2022/03/05 08:35:15;;;;;;;22.65;11.00;;;3.30;70.10;;;;;;5077192;28;20028;-38
2022/03/05 08:37:43;;;;;;;26.20;12.25;;;3.40;70.00;;;;;;5095493;28;20039;-38
2022/03/05 08:40:11;;;;;;;24.20;10.85;;;3.40;70.00;;;;;;5095137;28;20040;-38
2022/03/05 08:42:36;;;;;;;25.23;11.77;;;3.50;70.70;;;;;;5095168;28;20028;-38
2022/03/05 08:45:04;;;;;;;24.65;11.30;;;3.50;70.50;;;;;;5095132;28;20503;-37
2022/03/05 08:47:30;;;;;;;21.70;10.27;;;3.50;70.30;;;;;;5095561;28;20027;-39
2022/03/05 08:49:55;;;;;;;27.88;12.60;;;3.60;70.20;;;;;;5095008;28;20032;-39
2022/03/05 08:52:21;;;;;;;23.02;10.63;;;3.60;70.00;;;;;;5094858;28;20063;-39
2022/03/05 08:54:46;;;;;;;23.08;10.52;;;3.60;69.90;;;;;;5094587;28;20117;-39
2022/03/05 08:57:13;;;;;;;21.90;11.73;;;3.70;69.80;;;;;;5094807;28;20028;-39
2022/03/05 08:59:39;;;;;;;21.42;10.27;;;3.70;69.80;;;;;;5094541;28;20119;-40
2022/03/05 09:02:06;;;;;;;20.15;9.80;;;3.80;69.80;;;;;;5094671;28;20024;-39
2022/03/05 09:04:32;;;;;;;21.35;9.80;;;3.80;69.80;;;;;;5076331;28;20395;-37
2022/03/05 09:06:57;;;;;;;21.88;9.77;;;3.90;70.10;;;;;;5094792;28;20043;-39
2022/03/05 09:09:23;;;;;;;18.88;9.55;;;4.00;70.20;;;;;;5094365;28;20024;-39
2022/03/05 09:11:49;;;;;;;22.90;10.80;;;4.00;70.00;;;;;;5094361;28;20031;-38
2022/03/05 09:14:14;;;;;;;22.52;10.65;;;4.10;69.90;;;;;;5094369;28;20488;-38
2022/03/05 09:16:40;;;;;;;19.30;9.52;;;4.10;70.00;;;;;;5076012;28;20054;-37
2022/03/05 09:19:07;;;;;;;21.55;10.25;;;4.20;70.50;;;;;;5094159;28;20024;-37
2022/03/05 09:21:34;;;;;;;23.67;10.90;;;4.20;70.50;;;;;;5076026;28;20031;-38
2022/03/05 09:24:01;;;;;;;23.85;10.55;;;4.20;70.50;;;;;;5094283;28;20020;-39
2022/03/05 09:26:27;;;;;;;22.27;10.40;;;4.30;70.70;;;;;;5092787;28;20032;-39
2022/03/05 09:28:52;;;;;;;20.15;10.27;;;4.40;70.50;;;;;;5075749;28;20115;-38
2022/03/05 09:31:18;;;;;;;23.55;10.63;;;4.40;70.20;;;;;;5093891;28;20440;-36
2022/03/05 09:33:44;;;;;;;21.95;10.15;;;4.40;70.00;;;;;;5093690;28;20032;-36
2022/03/05 09:36:09;;;;;;;19.88;10.20;;;4.40;70.20;;;;;;5094122;28;20039;-38
2022/03/05 09:38:35;;;;;;;23.45;10.57;;;4.50;70.70;;;;;;5093771;28;20391;-38
2022/03/05 09:41:03;;;;;;;22.48;11.25;;;4.50;70.40;;;;;;5093578;28;20024;-38
2022/03/05 09:43:29;;;;;;;22.75;10.82;;;4.50;70.20;;;;;;5093703;28;20472;-38
2022/03/05 09:45:56;;;;;;;25.85;11.30;;;4.60;70.20;;;;;;5093614;28;20032;-40
2022/03/05 09:48:23;;;;;;;23.50;11.00;;;4.60;70.00;;;;;;5093895;28;20020;-38
2022/03/05 09:50:49;;;;;;;25.05;12.32;;;4.70;70.00;;;;;;5093697;28;20384;-37
2022/03/05 09:53:14;;;;;;;26.88;12.27;;;4.80;69.80;;;;;;5093571;28;20058;-38
2022/03/05 09:55:40;;;;;;;28.35;13.38;;;4.80;69.70;;;;;;5075208;28;20052;-37
2022/03/05 09:58:05;;;;;;;25.67;12.40;;;4.90;69.60;;;;;;5093666;28;20028;-37
2022/03/05 10:00:31;;;;;;;25.42;12.75;;;5.00;69.60;;;;;;5093429;28;20484;-37
2022/03/05 10:02:57;;;;;;;26.95;12.57;;;5.00;69.30;;;;;;5093587;28;20023;-38
2022/03/05 10:05:26;;;;;;;25.67;12.77;;;5.00;69.20;;;;;;5075422;28;20020;-39
2022/03/05 10:08:01;;;;;;;21.75;11.63;;;5.10;69.20;;;;;;5093524;28;20414;-39
2022/03/05 10:10:27;;;;;;;25.20;12.27;;;5.20;69.20;;;;;;5093284;28;20445;-37
2022/03/05 10:12:53;;;;;;;23.42;11.55;;;5.20;69.30;;;;;;5093154;28;20037;-38
2022/03/05 10:15:20;;;;;;;24.00;12.20;;;5.20;69.30;;;;;;5093196;28;20025;-37
2022/03/05 10:17:49;;;;;;;26.63;12.88;;;5.30;69.30;;;;;;5092936;28;20024;-37
2022/03/05 10:20:15;;;;;;;28.80;13.70;;;5.40;69.20;;;;;;5092989;28;20024;-39
2022/03/05 10:23:11;;;;;;;24.92;12.23;;;5.40;69.10;;;;;;5074877;28;20099;-38
2022/03/05 10:25:53;;;;;;;25.50;13.05;;;5.50;68.90;;;;;;5072577;28;20024;-37
2022/03/05 10:28:25;;;;;;;28.02;13.20;;;5.50;68.80;;;;;;5092949;28;20100;-37
2022/03/05 10:31:03;;;;;;;25.50;12.90;;;5.60;68.70;;;;;;5092777;28;20330;-38
2022/03/05 10:33:32;;;;;;;26.10;12.75;;;5.70;68.60;;;;;;5092876;28;20453;-36
2022/03/05 10:36:00;;;;;;;27.88;12.88;;;5.80;68.60;;;;;;5092922;28;20024;-38
2022/03/05 10:38:43;;;;;;;22.20;11.35;;;5.80;68.40;;;;;;5092459;28;20031;-38
2022/03/05 10:41:09;;;;;;;23.65;11.50;;;5.90;68.40;;;;;;5093017;28;20020;-39
2022/03/05 10:43:34;;;;;;;23.42;11.45;;;5.90;68.40;;;;;;5092779;28;20134;-37
2022/03/05 10:46:00;;;;;;;23.95;11.27;;;6.00;68.30;;;;;;5092645;28;20074;-37
2022/03/05 10:48:28;;;;;;;23.02;12.20;;;6.00;69.20;;;;;;5092907;28;20476;-38
2022/03/05 10:50:59;;;;;;;24.55;12.43;;;6.10;69.40;;;;;;5092842;28;20066;-39
2022/03/05 10:53:54;;;;;;;22.38;11.75;;;6.20;69.00;;;;;;5092883;28;20034;-38
2022/03/05 10:56:24;;;;;;;21.80;11.05;;;6.30;69.20;;;;;;5070979;28;20157;-38
2022/03/05 10:59:16;;;;;;;26.08;13.07;;;6.30;69.00;;;;;;5092289;28;20043;-38
2022/03/05 11:01:43;;;;;;;21.40;11.45;;;6.40;68.60;;;;;;5087502;28;20041;-38
2022/03/05 11:04:11;;;;;;;22.20;11.50;;;6.40;68.40;;;;;;5092176;28;20111;-38
2022/03/05 11:06:43;;;;;;;24.92;12.38;;;6.50;68.70;;;;;;5092452;28;20411;-37
2022/03/05 11:09:13;;;;;;;24.50;12.88;;;6.50;68.30;;;;;;5092547;28;20491;-40
2022/03/05 11:11:42;;;;;;;25.00;12.30;;;6.60;68.10;;;;;;5092389;28;20089;-37
2022/03/05 11:14:15;;;;;;;21.92;11.93;;;6.60;67.80;;;;;;5074738;28;20020;-39
2022/03/05 11:16:42;;;;;;;22.95;12.70;;;6.70;67.50;;;;;;5092082;28;20103;-38
2022/03/05 11:19:08;;;;;;;28.02;14.15;;;6.60;67.30;;;;;;5057158;28;20028;-38
2022/03/05 11:21:34;;;;;;;25.02;12.52;;;6.70;66.70;;;;;;5092174;28;20035;-38
2022/03/05 11:24:01;;;;;;;25.83;13.13;;;6.60;67.00;;;;;;5091948;28;20074;-39
2022/03/05 11:26:30;;;;;;;25.58;12.70;;;6.70;68.10;;;;;;5092046;28;20027;-38
2022/03/05 11:28:55;;;;;;;25.42;12.10;;;6.80;68.10;;;;;;5092176;28;20012;-38
2022/03/05 11:31:23;;;;;;;26.60;13.23;;;6.90;68.20;;;;;;5092222;28;20111;-38
2022/03/05 11:33:50;;;;;;;31.27;16.13;;;6.90;67.50;;;;;;5092308;28;20460;-39
2022/03/05 11:36:28;;;;;;;28.23;13.40;;;6.90;65.80;;;;;;5092341;28;20397;-37
2022/03/05 11:39:14;;;;;;;26.73;12.85;;;6.90;66.60;;;;;;5092306;28;20468;-37
2022/03/05 11:42:04;;;;;;;26.52;12.45;;;6.90;67.00;;;;;;5092102;28;20028;-38
2022/03/05 11:44:43;;;;;;;22.33;11.25;;;7.00;67.10;;;;;;5092289;28;20028;-38
2022/03/05 11:47:18;;;;;;;20.83;10.98;;;7.10;66.80;;;;;;5092252;28;20012;-38
2022/03/05 11:49:59;;;;;;;21.67;11.15;;;7.20;66.90;;;;;;5093738;28;20024;-37
2022/03/05 11:52:39;;;;;;;24.45;11.82;;;7.20;66.70;;;;;;5095966;28;20021;-39
2022/03/05 11:55:11;;;;;;;22.20;11.48;;;7.30;66.50;;;;;;5077628;28;20411;-39
2022/03/05 11:57:42;;;;;;;23.35;12.07;;;7.40;66.90;;;;;;5095832;28;20536;-38
2022/03/05 12:00:09;;;;;;;22.65;11.50;;;7.40;66.30;;;;;;5095759;28;20191;-40
2022/03/05 12:02:42;;;;;;;21.45;11.55;;;7.40;66.50;;;;;;5095934;28;20031;-38
2022/03/05 12:05:07;;;;;;;24.35;12.05;;;7.50;66.40;;;;;;5095813;28;20020;-39
2022/03/05 12:07:40;;;;;;;24.00;12.45;;;7.60;66.00;;;;;;5095674;28;20017;-38
2022/03/05 12:10:15;;;;;;;22.02;11.82;;;7.60;65.80;;;;;;5095921;28;20170;-38
2022/03/05 12:12:57;;;;;;;24.88;11.45;;;7.70;65.70;;;;;;5095398;28;20364;-37
2022/03/05 12:15:37;;;;;;;23.38;11.68;;;7.80;65.50;;;;;;5095614;28;20025;-39
2022/03/05 12:18:05;;;;;;;21.83;11.88;;;7.90;65.40;;;;;;5095498;28;20081;-38
2022/03/05 12:20:34;;;;;;;24.55;12.88;;;8.00;65.70;;;;;;5095561;28;20476;-40
2022/03/05 12:23:05;;;;;;;22.35;12.32;;;8.10;65.30;;;;;;5095454;28;20463;-40
2022/03/05 12:25:38;;;;;;;24.73;11.95;;;8.20;65.40;;;;;;5095471;28;20020;-40
2022/03/05 12:28:11;;;;;;;23.55;11.73;;;8.20;65.20;;;;;;5095350;28;20497;-39
2022/03/05 12:30:38;;;;;;;24.13;12.37;;;8.30;65.20;;;;;;5095254;28;20020;-38
2022/03/05 12:33:06;;;;;;;27.52;14.27;;;8.30;64.80;;;;;;5095291;28;20051;-39
2022/03/05 12:35:33;;;;;;;28.42;13.30;;;8.40;64.70;;;;;;5095527;28;20024;-40
2022/03/05 12:37:58;;;;;;;22.58;11.98;;;8.40;64.30;;;;;;5095129;28;20024;-38
2022/03/05 12:40:26;;;;;;;28.08;13.65;;;8.40;64.20;;;;;;5094897;28;20490;-39